sensor_id;sensor_type;location;lat;lon;timestamp;temperature;humidity
23609;DHT22;11982;50.810;4.442;2023-09-19T00:02:19;14.90;99.90
23609;DHT22;11982;50.810;4.442;2023-09-19T00:04:45;14.90;99.90
23609;DHT22;11982;50.810;4.442;2023-09-19T00:07:10;14.80;99.90
23609;DHT22;11982;50.810;4.442;2023-09-19T00:09:36;14.90;99.90
23609;DHT22;11982;50.810;4.442;2023-09-19T00:12:06;14.90;99.90
23609;DHT22;11982;50.810;4.442;2023-09-19T00:14:32;14.90;99.90
23609;DHT22;11982;50.810;4.442;2023-09-19T00:17:02;14.80;99.90
23609;DHT22;11982;50.810;4.442;2023-09-19T00:19:34;14.80;99.90
23609;DHT22;11982;50.810;4.442;2023-09-19T00:22:00;14.80;99.90
23609;DHT22;11982;50.810;4.442;2023-09-19T00:24:26;14.80;99.90
23609;DHT22;11982;50.810;4.442;2023-09-19T00:26:54;14.80;99.90
23609;DHT22;11982;50.810;4.442;2023-09-19T00:29:25;14.80;99.90
23609;DHT22;11982;50.810;4.442;2023-09-19T00:31:55;14.80;99.90
23609;DHT22;11982;50.810;4.442;2023-09-19T00:34:22;14.80;99.90
23609;DHT22;11982;50.810;4.442;2023-09-19T00:36:48;14.80;99.90
23609;DHT22;11982;50.810;4.442;2023-09-19T00:39:14;14.80;99.90
23609;DHT22;11982;50.810;4.442;2023-09-19T00:41:39;14.80;99.90
23609;DHT22;11982;50.810;4.442;2023-09-19T00:44:06;14.80;99.90
23609;DHT22;11982;50.810;4.442;2023-09-19T00:46:32;14.70;99.90
23609;DHT22;11982;50.810;4.442;2023-09-19T00:48:58;14.60;99.90
23609;DHT22;11982;50.810;4.442;2023-09-19T00:51:25;14.60;99.90
23609;DHT22;11982;50.810;4.442;2023-09-19T00:53:53;14.60;99.90
23609;DHT22;11982;50.810;4.442;2023-09-19T00:56:19;14.70;99.90
23609;DHT22;11982;50.810;4.442;2023-09-19T00:58:46;14.60;99.90
23609;DHT22;11982;50.810;4.442;2023-09-19T01:01:13;14.60;99.90
23609;DHT22;11982;50.810;4.442;2023-09-19T01:03:41;14.60;99.90
23609;DHT22;11982;50.810;4.442;2023-09-19T01:06:07;14.60;99.90
23609;DHT22;11982;50.810;4.442;2023-09-19T01:08:36;14.60;99.90
23609;DHT22;11982;50.810;4.442;2023-09-19T01:11:21;14.60;99.90
23609;DHT22;11982;50.810;4.442;2023-09-19T01:14:05;14.60;99.90
23609;DHT22;11982;50.810;4.442;2023-09-19T01:19:44;14.50;99.90
23609;DHT22;11982;50.810;4.442;2023-09-19T01:22:29;14.50;99.90
23609;DHT22;11982;50.810;4.442;2023-09-19T01:30:20;14.40;99.90
23609;DHT22;11982;50.810;4.442;2023-09-19T01:32:52;14.30;99.90
23609;DHT22;11982;50.810;4.442;2023-09-19T01:35:18;14.30;99.90
23609;DHT22;11982;50.810;4.442;2023-09-19T01:37:44;14.20;99.90
23609;DHT22;11982;50.810;4.442;2023-09-19T01:40:13;14.30;99.90
23609;DHT22;11982;50.810;4.442;2023-09-19T01:48:43;14.30;99.90
23609;DHT22;11982;50.810;4.442;2023-09-19T01:51:15;14.20;99.90
23609;DHT22;11982;50.810;4.442;2023-09-19T01:54:00;14.20;99.90
23609;DHT22;11982;50.810;4.442;2023-09-19T01:56:37;14.20;99.90
23609;DHT22;11982;50.810;4.442;2023-09-19T01:59:10;14.20;99.90
23609;DHT22;11982;50.810;4.442;2023-09-19T02:01:39;14.20;99.90
23609;DHT22;11982;50.810;4.442;2023-09-19T02:04:05;14.20;99.90
23609;DHT22;11982;50.810;4.442;2023-09-19T02:06:33;14.20;99.90
23609;DHT22;11982;50.810;4.442;2023-09-19T02:08:59;14.20;99.90
23609;DHT22;11982;50.810;4.442;2023-09-19T02:11:25;14.10;99.90
23609;DHT22;11982;50.810;4.442;2023-09-19T02:13:51;14.10;99.90
23609;DHT22;11982;50.810;4.442;2023-09-19T02:16:20;14.20;99.90
23609;DHT22;11982;50.810;4.442;2023-09-19T02:18:48;14.10;99.90
23609;DHT22;11982;50.810;4.442;2023-09-19T02:21:15;14.10;99.90
23609;DHT22;11982;50.810;4.442;2023-09-19T02:23:41;14.20;99.90
23609;DHT22;11982;50.810;4.442;2023-09-19T02:26:06;14.20;99.90
23609;DHT22;11982;50.810;4.442;2023-09-19T02:28:32;14.20;99.90
23609;DHT22;11982;50.810;4.442;2023-09-19T02:30:59;14.20;99.90
23609;DHT22;11982;50.810;4.442;2023-09-19T02:33:25;14.20;99.90
23609;DHT22;11982;50.810;4.442;2023-09-19T02:35:55;14.20;99.90
23609;DHT22;11982;50.810;4.442;2023-09-19T02:38:23;14.20;99.90
23609;DHT22;11982;50.810;4.442;2023-09-19T02:40:50;14.30;99.90
23609;DHT22;11982;50.810;4.442;2023-09-19T02:43:16;14.40;99.90
23609;DHT22;11982;50.810;4.442;2023-09-19T02:45:42;14.40;99.90
23609;DHT22;11982;50.810;4.442;2023-09-19T02:48:08;14.50;99.90
23609;DHT22;11982;50.810;4.442;2023-09-19T02:50:34;14.50;99.90
23609;DHT22;11982;50.810;4.442;2023-09-19T02:53:00;14.50;99.90
23609;DHT22;11982;50.810;4.442;2023-09-19T02:55:25;14.60;99.90
23609;DHT22;11982;50.810;4.442;2023-09-19T02:57:53;14.60;99.90
23609;DHT22;11982;50.810;4.442;2023-09-19T03:00:20;14.70;99.90
23609;DHT22;11982;50.810;4.442;2023-09-19T03:02:55;14.60;99.90
23609;DHT22;11982;50.810;4.442;2023-09-19T03:05:23;14.60;99.90
23609;DHT22;11982;50.810;4.442;2023-09-19T03:07:49;14.60;99.90
23609;DHT22;11982;50.810;4.442;2023-09-19T03:10:17;14.60;99.90
23609;DHT22;11982;50.810;4.442;2023-09-19T03:12:43;14.60;99.90
23609;DHT22;11982;50.810;4.442;2023-09-19T03:15:09;14.60;99.90
23609;DHT22;11982;50.810;4.442;2023-09-19T03:17:35;14.60;99.90
23609;DHT22;11982;50.810;4.442;2023-09-19T03:20:02;14.60;99.90
23609;DHT22;11982;50.810;4.442;2023-09-19T03:22:28;14.50;99.90
23609;DHT22;11982;50.810;4.442;2023-09-19T03:24:54;14.50;99.90
23609;DHT22;11982;50.810;4.442;2023-09-19T03:27:19;14.50;99.90
23609;DHT22;11982;50.810;4.442;2023-09-19T03:29:46;14.50;99.90
23609;DHT22;11982;50.810;4.442;2023-09-19T03:32:12;14.50;99.90
23609;DHT22;11982;50.810;4.442;2023-09-19T03:34:38;14.60;99.90
23609;DHT22;11982;50.810;4.442;2023-09-19T03:37:09;14.60;99.90
23609;DHT22;11982;50.810;4.442;2023-09-19T03:39:34;14.60;99.90
23609;DHT22;11982;50.810;4.442;2023-09-19T03:42:01;14.60;99.90
23609;DHT22;11982;50.810;4.442;2023-09-19T03:44:28;14.60;99.90
23609;DHT22;11982;50.810;4.442;2023-09-19T03:46:54;14.60;99.90
23609;DHT22;11982;50.810;4.442;2023-09-19T03:49:21;14.40;99.90
23609;DHT22;11982;50.810;4.442;2023-09-19T03:51:46;14.40;99.90
23609;DHT22;11982;50.810;4.442;2023-09-19T03:54:12;14.30;99.90
23609;DHT22;11982;50.810;4.442;2023-09-19T03:56:38;14.10;99.90
23609;DHT22;11982;50.810;4.442;2023-09-19T03:59:03;14.10;99.90
23609;DHT22;11982;50.810;4.442;2023-09-19T04:01:30;14.00;99.90
23609;DHT22;11982;50.810;4.442;2023-09-19T04:03:57;14.00;99.90
23609;DHT22;11982;50.810;4.442;2023-09-19T04:06:23;13.90;99.90
23609;DHT22;11982;50.810;4.442;2023-09-19T04:08:50;13.80;99.90
23609;DHT22;11982;50.810;4.442;2023-09-19T04:11:15;13.80;99.90
23609;DHT22;11982;50.810;4.442;2023-09-19T04:13:41;13.70;99.90
23609;DHT22;11982;50.810;4.442;2023-09-19T04:16:07;13.80;99.90
23609;DHT22;11982;50.810;4.442;2023-09-19T04:18:33;13.70;99.90
23609;DHT22;11982;50.810;4.442;2023-09-19T04:21:02;13.70;99.90
23609;DHT22;11982;50.810;4.442;2023-09-19T04:23:29;13.80;99.90
23609;DHT22;11982;50.810;4.442;2023-09-19T04:25:55;13.90;99.90
23609;DHT22;11982;50.810;4.442;2023-09-19T04:28:21;13.90;99.90
23609;DHT22;11982;50.810;4.442;2023-09-19T04:30:47;13.80;99.90
23609;DHT22;11982;50.810;4.442;2023-09-19T04:33:13;13.80;99.90
23609;DHT22;11982;50.810;4.442;2023-09-19T04:35:41;13.90;99.90
23609;DHT22;11982;50.810;4.442;2023-09-19T04:38:10;13.90;99.90
23609;DHT22;11982;50.810;4.442;2023-09-19T04:40:37;13.90;99.90
23609;DHT22;11982;50.810;4.442;2023-09-19T04:43:05;13.90;99.90
23609;DHT22;11982;50.810;4.442;2023-09-19T04:45:31;13.90;99.90
23609;DHT22;11982;50.810;4.442;2023-09-19T04:47:57;13.80;99.90
23609;DHT22;11982;50.810;4.442;2023-09-19T04:50:23;13.80;99.90
23609;DHT22;11982;50.810;4.442;2023-09-19T04:52:51;13.70;99.90
23609;DHT22;11982;50.810;4.442;2023-09-19T04:55:18;13.80;99.90
23609;DHT22;11982;50.810;4.442;2023-09-19T04:57:48;13.70;99.90
23609;DHT22;11982;50.810;4.442;2023-09-19T05:00:19;13.70;99.90
23609;DHT22;11982;50.810;4.442;2023-09-19T05:02:45;13.70;99.90
23609;DHT22;11982;50.810;4.442;2023-09-19T05:05:11;13.70;99.90
23609;DHT22;11982;50.810;4.442;2023-09-19T05:07:41;13.60;99.90
23609;DHT22;11982;50.810;4.442;2023-09-19T05:10:08;13.60;99.90
23609;DHT22;11982;50.810;4.442;2023-09-19T05:12:37;13.60;99.90
23609;DHT22;11982;50.810;4.442;2023-09-19T05:15:06;13.60;99.90
23609;DHT22;11982;50.810;4.442;2023-09-19T05:17:35;13.60;99.90
23609;DHT22;11982;50.810;4.442;2023-09-19T05:20:02;13.60;99.90
23609;DHT22;11982;50.810;4.442;2023-09-19T05:22:32;13.60;99.90
23609;DHT22;11982;50.810;4.442;2023-09-19T05:25:00;13.60;99.90
23609;DHT22;11982;50.810;4.442;2023-09-19T05:27:29;13.60;99.90
23609;DHT22;11982;50.810;4.442;2023-09-19T05:29:56;13.60;99.90
23609;DHT22;11982;50.810;4.442;2023-09-19T05:32:22;13.60;99.90
23609;DHT22;11982;50.810;4.442;2023-09-19T05:34:48;13.70;99.90
23609;DHT22;11982;50.810;4.442;2023-09-19T05:37:13;13.70;99.90
23609;DHT22;11982;50.810;4.442;2023-09-19T05:39:41;13.70;99.90
23609;DHT22;11982;50.810;4.442;2023-09-19T05:42:08;13.70;99.90
23609;DHT22;11982;50.810;4.442;2023-09-19T05:44:33;13.80;99.90
23609;DHT22;11982;50.810;4.442;2023-09-19T05:46:59;13.80;99.90
23609;DHT22;11982;50.810;4.442;2023-09-19T05:49:25;13.80;99.90
23609;DHT22;11982;50.810;4.442;2023-09-19T05:51:51;13.90;99.90
23609;DHT22;11982;50.810;4.442;2023-09-19T05:54:19;13.90;99.90
23609;DHT22;11982;50.810;4.442;2023-09-19T05:56:45;13.90;99.90
23609;DHT22;11982;50.810;4.442;2023-09-19T05:59:12;14.00;99.90
23609;DHT22;11982;50.810;4.442;2023-09-19T06:01:44;13.90;99.90
23609;DHT22;11982;50.810;4.442;2023-09-19T06:04:09;13.90;99.90
23609;DHT22;11982;50.810;4.442;2023-09-19T06:06:35;13.90;99.90
23609;DHT22;11982;50.810;4.442;2023-09-19T06:09:04;13.90;99.90
23609;DHT22;11982;50.810;4.442;2023-09-19T06:11:34;13.90;99.90
23609;DHT22;11982;50.810;4.442;2023-09-19T06:14:01;14.00;99.90
23609;DHT22;11982;50.810;4.442;2023-09-19T06:16:28;14.00;99.90
23609;DHT22;11982;50.810;4.442;2023-09-19T06:18:54;14.00;99.90
23609;DHT22;11982;50.810;4.442;2023-09-19T06:21:22;14.00;99.90
23609;DHT22;11982;50.810;4.442;2023-09-19T06:23:48;14.00;99.90
23609;DHT22;11982;50.810;4.442;2023-09-19T06:26:14;14.00;99.90
23609;DHT22;11982;50.810;4.442;2023-09-19T06:28:40;14.10;99.90
23609;DHT22;11982;50.810;4.442;2023-09-19T06:31:06;14.20;99.90
23609;DHT22;11982;50.810;4.442;2023-09-19T06:33:36;14.10;99.90
23609;DHT22;11982;50.810;4.442;2023-09-19T06:36:05;14.20;99.90
23609;DHT22;11982;50.810;4.442;2023-09-19T06:38:31;14.20;99.90
23609;DHT22;11982;50.810;4.442;2023-09-19T06:40:59;14.20;99.90
23609;DHT22;11982;50.810;4.442;2023-09-19T06:43:26;14.30;99.90
23609;DHT22;11982;50.810;4.442;2023-09-19T06:45:53;14.40;99.90
23609;DHT22;11982;50.810;4.442;2023-09-19T06:48:20;14.40;99.90
23609;DHT22;11982;50.810;4.442;2023-09-19T06:50:46;14.30;99.90
23609;DHT22;11982;50.810;4.442;2023-09-19T06:53:13;14.40;99.90
23609;DHT22;11982;50.810;4.442;2023-09-19T06:55:39;14.40;99.90
23609;DHT22;11982;50.810;4.442;2023-09-19T06:58:05;14.40;99.90
23609;DHT22;11982;50.810;4.442;2023-09-19T07:00:31;14.40;99.90
23609;DHT22;11982;50.810;4.442;2023-09-19T07:03:03;14.40;99.90
23609;DHT22;11982;50.810;4.442;2023-09-19T07:05:30;14.40;99.90
23609;DHT22;11982;50.810;4.442;2023-09-19T07:07:57;14.50;99.90
23609;DHT22;11982;50.810;4.442;2023-09-19T07:10:29;14.60;99.90
23609;DHT22;11982;50.810;4.442;2023-09-19T07:12:59;14.60;99.90
23609;DHT22;11982;50.810;4.442;2023-09-19T07:15:29;14.50;99.90
23609;DHT22;11982;50.810;4.442;2023-09-19T07:17:56;14.60;99.90
23609;DHT22;11982;50.810;4.442;2023-09-19T07:20:23;14.70;99.90
23609;DHT22;11982;50.810;4.442;2023-09-19T07:22:53;14.80;99.90
23609;DHT22;11982;50.810;4.442;2023-09-19T07:25:21;14.90;99.90
23609;DHT22;11982;50.810;4.442;2023-09-19T07:27:47;14.90;99.90
23609;DHT22;11982;50.810;4.442;2023-09-19T07:30:13;15.00;99.90
23609;DHT22;11982;50.810;4.442;2023-09-19T07:32:39;15.10;99.90
23609;DHT22;11982;50.810;4.442;2023-09-19T07:35:06;15.10;99.90
23609;DHT22;11982;50.810;4.442;2023-09-19T07:37:32;15.30;99.90
23609;DHT22;11982;50.810;4.442;2023-09-19T07:40:02;15.40;99.90
23609;DHT22;11982;50.810;4.442;2023-09-19T07:42:37;15.30;99.90
23609;DHT22;11982;50.810;4.442;2023-09-19T07:45:07;15.30;99.90
23609;DHT22;11982;50.810;4.442;2023-09-19T07:47:33;15.30;99.90
23609;DHT22;11982;50.810;4.442;2023-09-19T07:50:00;15.40;99.90
23609;DHT22;11982;50.810;4.442;2023-09-19T07:52:28;15.40;99.90
23609;DHT22;11982;50.810;4.442;2023-09-19T07:54:55;15.40;99.90
23609;DHT22;11982;50.810;4.442;2023-09-19T07:57:22;15.50;99.90
23609;DHT22;11982;50.810;4.442;2023-09-19T07:59:48;15.60;99.90
23609;DHT22;11982;50.810;4.442;2023-09-19T08:02:14;15.60;99.90
23609;DHT22;11982;50.810;4.442;2023-09-19T08:04:44;15.60;99.90
23609;DHT22;11982;50.810;4.442;2023-09-19T08:07:12;15.70;99.90
23609;DHT22;11982;50.810;4.442;2023-09-19T08:09:40;15.70;99.90
23609;DHT22;11982;50.810;4.442;2023-09-19T08:12:07;15.70;99.90
23609;DHT22;11982;50.810;4.442;2023-09-19T08:14:36;15.80;99.90
23609;DHT22;11982;50.810;4.442;2023-09-19T08:17:02;15.80;99.90
23609;DHT22;11982;50.810;4.442;2023-09-19T08:19:28;15.80;99.90
23609;DHT22;11982;50.810;4.442;2023-09-19T08:21:55;15.90;99.90
23609;DHT22;11982;50.810;4.442;2023-09-19T08:24:24;16.00;99.90
23609;DHT22;11982;50.810;4.442;2023-09-19T08:26:52;16.10;99.90
23609;DHT22;11982;50.810;4.442;2023-09-19T08:29:20;16.10;99.90
23609;DHT22;11982;50.810;4.442;2023-09-19T08:31:45;16.10;99.90
23609;DHT22;11982;50.810;4.442;2023-09-19T08:34:15;16.10;99.90
23609;DHT22;11982;50.810;4.442;2023-09-19T08:36:41;16.20;99.90
23609;DHT22;11982;50.810;4.442;2023-09-19T08:39:09;16.30;99.90
23609;DHT22;11982;50.810;4.442;2023-09-19T08:41:34;16.40;99.90
23609;DHT22;11982;50.810;4.442;2023-09-19T08:44:00;16.50;99.90
23609;DHT22;11982;50.810;4.442;2023-09-19T08:46:30;16.60;99.90
23609;DHT22;11982;50.810;4.442;2023-09-19T08:49:03;16.80;99.90
23609;DHT22;11982;50.810;4.442;2023-09-19T08:51:41;16.90;99.90
23609;DHT22;11982;50.810;4.442;2023-09-19T08:54:29;16.80;99.90
23609;DHT22;11982;50.810;4.442;2023-09-19T08:57:00;16.80;99.90
23609;DHT22;11982;50.810;4.442;2023-09-19T08:59:29;16.90;99.90
23609;DHT22;11982;50.810;4.442;2023-09-19T09:01:56;17.00;99.90
23609;DHT22;11982;50.810;4.442;2023-09-19T09:04:23;17.10;99.90
23609;DHT22;11982;50.810;4.442;2023-09-19T09:06:51;17.30;99.90
23609;DHT22;11982;50.810;4.442;2023-09-19T09:09:20;17.50;99.90
23609;DHT22;11982;50.810;4.442;2023-09-19T09:11:48;17.50;99.90
23609;DHT22;11982;50.810;4.442;2023-09-19T09:14:20;17.60;99.90
23609;DHT22;11982;50.810;4.442;2023-09-19T09:16:46;17.80;99.90
23609;DHT22;11982;50.810;4.442;2023-09-19T09:19:14;17.70;99.90
23609;DHT22;11982;50.810;4.442;2023-09-19T09:21:42;17.80;99.90
23609;DHT22;11982;50.810;4.442;2023-09-19T09:24:27;17.80;99.90
23609;DHT22;11982;50.810;4.442;2023-09-19T09:26:59;18.00;99.90
23609;DHT22;11982;50.810;4.442;2023-09-19T09:29:46;18.20;99.90
23609;DHT22;11982;50.810;4.442;2023-09-19T09:34:57;18.30;99.90
23609;DHT22;11982;50.810;4.442;2023-09-19T09:37:23;18.20;99.90
23609;DHT22;11982;50.810;4.442;2023-09-19T09:40:01;18.20;99.90
23609;DHT22;11982;50.810;4.442;2023-09-19T09:42:42;18.30;99.90
23609;DHT22;11982;50.810;4.442;2023-09-19T09:47:47;18.20;99.90
23609;DHT22;11982;50.810;4.442;2023-09-19T09:50:47;18.40;99.90
23609;DHT22;11982;50.810;4.442;2023-09-19T09:53:23;18.30;99.90
23609;DHT22;11982;50.810;4.442;2023-09-19T09:56:01;18.20;99.90
23609;DHT22;11982;50.810;4.442;2023-09-19T09:58:34;18.20;99.90
23609;DHT22;11982;50.810;4.442;2023-09-19T10:01:05;18.20;99.90
23609;DHT22;11982;50.810;4.442;2023-09-19T10:03:41;18.10;99.90
23609;DHT22;11982;50.810;4.442;2023-09-19T10:06:14;18.30;99.90
23609;DHT22;11982;50.810;4.442;2023-09-19T10:09:07;18.20;99.90
23609;DHT22;11982;50.810;4.442;2023-09-19T10:11:47;18.00;99.90
23609;DHT22;11982;50.810;4.442;2023-09-19T10:14:17;18.00;99.90
23609;DHT22;11982;50.810;4.442;2023-09-19T10:16:49;18.10;99.90
23609;DHT22;11982;50.810;4.442;2023-09-19T10:19:30;18.10;99.90
23609;DHT22;11982;50.810;4.442;2023-09-19T10:22:01;17.90;99.90
23609;DHT22;11982;50.810;4.442;2023-09-19T10:24:28;17.80;99.90
23609;DHT22;11982;50.810;4.442;2023-09-19T10:26:55;17.80;99.90
23609;DHT22;11982;50.810;4.442;2023-09-19T10:29:21;18.00;99.90
23609;DHT22;11982;50.810;4.442;2023-09-19T10:31:48;18.00;99.90
23609;DHT22;11982;50.810;4.442;2023-09-19T10:34:17;18.00;99.90
23609;DHT22;11982;50.810;4.442;2023-09-19T10:36:46;18.10;99.90
23609;DHT22;11982;50.810;4.442;2023-09-19T10:39:15;18.20;99.90
23609;DHT22;11982;50.810;4.442;2023-09-19T10:41:53;18.30;99.90
23609;DHT22;11982;50.810;4.442;2023-09-19T10:44:23;18.30;99.90
23609;DHT22;11982;50.810;4.442;2023-09-19T10:46:53;18.40;99.90
23609;DHT22;11982;50.810;4.442;2023-09-19T10:49:20;18.40;99.90
23609;DHT22;11982;50.810;4.442;2023-09-19T10:51:48;18.30;99.90
23609;DHT22;11982;50.810;4.442;2023-09-19T10:54:17;18.40;99.90
23609;DHT22;11982;50.810;4.442;2023-09-19T10:56:47;18.40;99.90
23609;DHT22;11982;50.810;4.442;2023-09-19T10:59:16;18.50;99.90
23609;DHT22;11982;50.810;4.442;2023-09-19T11:01:53;18.60;99.90
23609;DHT22;11982;50.810;4.442;2023-09-19T11:04:34;18.60;99.90
23609;DHT22;11982;50.810;4.442;2023-09-19T11:09:52;18.70;99.90
23609;DHT22;11982;50.810;4.442;2023-09-19T11:15:04;18.80;99.90
23609;DHT22;11982;50.810;4.442;2023-09-19T11:17:34;18.90;99.90
23609;DHT22;11982;50.810;4.442;2023-09-19T11:30:42;19.40;99.90
23609;DHT22;11982;50.810;4.442;2023-09-19T11:33:29;19.50;99.90
23609;DHT22;11982;50.810;4.442;2023-09-19T11:36:14;19.80;99.90
23609;DHT22;11982;50.810;4.442;2023-09-19T11:46:27;19.50;99.90
23609;DHT22;11982;50.810;4.442;2023-09-19T11:48:53;19.60;99.90
23609;DHT22;11982;50.810;4.442;2023-09-19T11:51:23;19.60;99.90
23609;DHT22;11982;50.810;4.442;2023-09-19T11:53:57;19.60;99.90
23609;DHT22;11982;50.810;4.442;2023-09-19T11:56:26;19.70;99.90
23609;DHT22;11982;50.810;4.442;2023-09-19T11:58:57;20.00;99.90
23609;DHT22;11982;50.810;4.442;2023-09-19T12:01:31;20.00;99.90
23609;DHT22;11982;50.810;4.442;2023-09-19T12:03:58;20.20;99.90
23609;DHT22;11982;50.810;4.442;2023-09-19T12:06:25;20.10;99.90
23609;DHT22;11982;50.810;4.442;2023-09-19T12:08:52;19.90;99.90
23609;DHT22;11982;50.810;4.442;2023-09-19T12:11:20;19.80;99.90
23609;DHT22;11982;50.810;4.442;2023-09-19T12:13:47;19.90;99.90
23609;DHT22;11982;50.810;4.442;2023-09-19T12:16:21;20.00;99.90
23609;DHT22;11982;50.810;4.442;2023-09-19T12:18:48;19.90;99.90
23609;DHT22;11982;50.810;4.442;2023-09-19T12:21:29;19.80;99.90
23609;DHT22;11982;50.810;4.442;2023-09-19T12:26:42;19.70;99.90
23609;DHT22;11982;50.810;4.442;2023-09-19T12:29:17;19.80;99.90
23609;DHT22;11982;50.810;4.442;2023-09-19T12:31:56;19.80;99.90
23609;DHT22;11982;50.810;4.442;2023-09-19T12:34:30;19.90;99.90
23609;DHT22;11982;50.810;4.442;2023-09-19T12:39:44;19.80;99.90
23609;DHT22;11982;50.810;4.442;2023-09-19T12:42:15;19.80;99.90
23609;DHT22;11982;50.810;4.442;2023-09-19T12:44:45;19.70;99.90
23609;DHT22;11982;50.810;4.442;2023-09-19T12:47:16;19.80;99.90
23609;DHT22;11982;50.810;4.442;2023-09-19T12:50:11;19.90;99.90
23609;DHT22;11982;50.810;4.442;2023-09-19T12:52:50;20.10;99.90
23609;DHT22;11982;50.810;4.442;2023-09-19T13:00:41;20.30;99.90
23609;DHT22;11982;50.810;4.442;2023-09-19T13:05:57;20.20;99.90
23609;DHT22;11982;50.810;4.442;2023-09-19T13:08:28;20.10;99.90
23609;DHT22;11982;50.810;4.442;2023-09-19T13:11:14;20.10;99.90
23609;DHT22;11982;50.810;4.442;2023-09-19T13:16:30;20.10;99.90
23609;DHT22;11982;50.810;4.442;2023-09-19T13:18:55;19.90;99.90
23609;DHT22;11982;50.810;4.442;2023-09-19T13:21:31;19.90;99.90
23609;DHT22;11982;50.810;4.442;2023-09-19T13:24:22;20.00;99.90
23609;DHT22;11982;50.810;4.442;2023-09-19T13:26:48;20.00;99.90
23609;DHT22;11982;50.810;4.442;2023-09-19T13:29:15;19.80;99.90
23609;DHT22;11982;50.810;4.442;2023-09-19T13:31:47;20.00;99.90
23609;DHT22;11982;50.810;4.442;2023-09-19T13:34:13;20.10;99.90
23609;DHT22;11982;50.810;4.442;2023-09-19T13:36:41;20.20;99.90
23609;DHT22;11982;50.810;4.442;2023-09-19T13:39:08;20.10;99.90
23609;DHT22;11982;50.810;4.442;2023-09-19T13:41:38;20.20;99.90
23609;DHT22;11982;50.810;4.442;2023-09-19T13:44:05;20.30;99.90
23609;DHT22;11982;50.810;4.442;2023-09-19T13:46:31;20.30;99.90
23609;DHT22;11982;50.810;4.442;2023-09-19T13:48:58;20.10;99.90
23609;DHT22;11982;50.810;4.442;2023-09-19T13:51:26;20.00;99.90
23609;DHT22;11982;50.810;4.442;2023-09-19T13:53:51;20.10;99.90
23609;DHT22;11982;50.810;4.442;2023-09-19T13:56:17;20.20;99.90
23609;DHT22;11982;50.810;4.442;2023-09-19T13:58:43;20.20;99.90
23609;DHT22;11982;50.810;4.442;2023-09-19T14:01:09;20.20;99.90
23609;DHT22;11982;50.810;4.442;2023-09-19T14:03:41;20.10;99.90
23609;DHT22;11982;50.810;4.442;2023-09-19T14:06:21;20.20;99.90
23609;DHT22;11982;50.810;4.442;2023-09-19T14:08:46;19.90;99.90
23609;DHT22;11982;50.810;4.442;2023-09-19T14:11:14;19.70;99.90
23609;DHT22;11982;50.810;4.442;2023-09-19T14:13:39;19.70;99.90
23609;DHT22;11982;50.810;4.442;2023-09-19T14:16:06;19.80;99.90
23609;DHT22;11982;50.810;4.442;2023-09-19T14:18:32;19.80;99.90
23609;DHT22;11982;50.810;4.442;2023-09-19T14:21:01;19.90;99.90
23609;DHT22;11982;50.810;4.442;2023-09-19T14:23:28;19.90;99.90
23609;DHT22;11982;50.810;4.442;2023-09-19T14:25:54;20.00;99.90
23609;DHT22;11982;50.810;4.442;2023-09-19T14:28:20;20.20;99.90
23609;DHT22;11982;50.810;4.442;2023-09-19T14:30:45;20.20;99.90
23609;DHT22;11982;50.810;4.442;2023-09-19T14:33:11;20.40;99.90
23609;DHT22;11982;50.810;4.442;2023-09-19T14:35:37;20.30;99.90
23609;DHT22;11982;50.810;4.442;2023-09-19T14:38:06;20.40;99.90
23609;DHT22;11982;50.810;4.442;2023-09-19T14:40:32;20.60;99.90
23609;DHT22;11982;50.810;4.442;2023-09-19T14:42:57;20.30;99.90
23609;DHT22;11982;50.810;4.442;2023-09-19T14:45:23;20.10;99.90
23609;DHT22;11982;50.810;4.442;2023-09-19T14:47:51;20.10;99.90
23609;DHT22;11982;50.810;4.442;2023-09-19T14:50:20;20.10;99.90
23609;DHT22;11982;50.810;4.442;2023-09-19T14:52:47;20.00;99.90
23609;DHT22;11982;50.810;4.442;2023-09-19T14:55:14;20.00;99.90
23609;DHT22;11982;50.810;4.442;2023-09-19T14:57:41;20.20;99.90
23609;DHT22;11982;50.810;4.442;2023-09-19T15:00:10;20.20;99.90
23609;DHT22;11982;50.810;4.442;2023-09-19T15:02:38;20.20;99.90
23609;DHT22;11982;50.810;4.442;2023-09-19T15:05:06;20.20;99.90
23609;DHT22;11982;50.810;4.442;2023-09-19T15:07:35;20.00;99.90
23609;DHT22;11982;50.810;4.442;2023-09-19T15:10:02;20.10;99.90
23609;DHT22;11982;50.810;4.442;2023-09-19T15:12:32;20.00;99.90
23609;DHT22;11982;50.810;4.442;2023-09-19T15:14:58;20.10;99.90
23609;DHT22;11982;50.810;4.442;2023-09-19T15:17:24;20.10;99.90
23609;DHT22;11982;50.810;4.442;2023-09-19T15:19:50;19.90;99.90
23609;DHT22;11982;50.810;4.442;2023-09-19T15:22:16;19.70;99.90
23609;DHT22;11982;50.810;4.442;2023-09-19T15:24:42;19.60;99.90
23609;DHT22;11982;50.810;4.442;2023-09-19T15:27:08;19.30;99.90
23609;DHT22;11982;50.810;4.442;2023-09-19T15:29:34;19.30;99.90
23609;DHT22;11982;50.810;4.442;2023-09-19T15:31:59;19.30;99.90
23609;DHT22;11982;50.810;4.442;2023-09-19T15:34:28;19.40;99.90
23609;DHT22;11982;50.810;4.442;2023-09-19T15:36:54;19.40;99.90
23609;DHT22;11982;50.810;4.442;2023-09-19T15:39:20;19.30;99.90
23609;DHT22;11982;50.810;4.442;2023-09-19T15:41:48;19.10;99.90
23609;DHT22;11982;50.810;4.442;2023-09-19T15:44:18;19.00;99.90
23609;DHT22;11982;50.810;4.442;2023-09-19T15:46:44;19.10;99.90
23609;DHT22;11982;50.810;4.442;2023-09-19T15:49:11;19.10;99.90
23609;DHT22;11982;50.810;4.442;2023-09-19T15:51:37;19.30;99.90
23609;DHT22;11982;50.810;4.442;2023-09-19T15:54:11;19.30;99.90
23609;DHT22;11982;50.810;4.442;2023-09-19T15:56:39;19.30;99.90
23609;DHT22;11982;50.810;4.442;2023-09-19T15:59:07;19.30;99.90
23609;DHT22;11982;50.810;4.442;2023-09-19T16:01:32;19.20;99.90
23609;DHT22;11982;50.810;4.442;2023-09-19T16:03:58;19.10;99.90
23609;DHT22;11982;50.810;4.442;2023-09-19T16:06:27;19.20;99.90
23609;DHT22;11982;50.810;4.442;2023-09-19T16:08:54;19.10;99.90
23609;DHT22;11982;50.810;4.442;2023-09-19T16:11:22;19.10;99.90
23609;DHT22;11982;50.810;4.442;2023-09-19T16:13:49;19.20;99.90
23609;DHT22;11982;50.810;4.442;2023-09-19T16:16:16;19.10;99.90
23609;DHT22;11982;50.810;4.442;2023-09-19T16:18:50;19.10;99.90
23609;DHT22;11982;50.810;4.442;2023-09-19T16:21:17;19.00;99.90
23609;DHT22;11982;50.810;4.442;2023-09-19T16:23:47;19.10;99.90
23609;DHT22;11982;50.810;4.442;2023-09-19T16:26:13;19.00;99.90
23609;DHT22;11982;50.810;4.442;2023-09-19T16:28:40;18.90;99.90
23609;DHT22;11982;50.810;4.442;2023-09-19T16:31:07;18.90;99.90
23609;DHT22;11982;50.810;4.442;2023-09-19T16:33:36;18.80;99.90
23609;DHT22;11982;50.810;4.442;2023-09-19T16:36:08;18.80;99.90
23609;DHT22;11982;50.810;4.442;2023-09-19T16:38:35;18.80;99.90
23609;DHT22;11982;50.810;4.442;2023-09-19T16:41:02;18.60;99.90